sensor_id;sensor_type;location;lat;lon;timestamp;P1;durP1;ratioP1;P2;durP2;ratioP2
55678;SDS011;41573;51.446;-2.018;2022-11-18T00:01:14;116.93;;;108.53;;
55678;SDS011;41573;51.446;-2.018;2022-11-18T00:03:41;102.00;;;95.57;;
55678;SDS011;41573;51.446;-2.018;2022-11-18T00:06:12;73.28;;;69.15;;
55678;SDS011;41573;51.446;-2.018;2022-11-18T00:08:39;70.03;;;66.50;;
55678;SDS011;41573;51.446;-2.018;2022-11-18T00:11:06;131.18;;;124.43;;
55678;SDS011;41573;51.446;-2.018;2022-11-18T00:13:33;229.45;;;212.57;;
55678;SDS011;41573;51.446;-2.018;2022-11-18T00:16:17;305.83;;;264.25;;
55678;SDS011;41573;51.446;-2.018;2022-11-18T00:18:43;66.88;;;63.53;;
55678;SDS011;41573;51.446;-2.018;2022-11-18T00:21:09;97.95;;;91.22;;
55678;SDS011;41573;51.446;-2.018;2022-11-18T00:23:35;42.45;;;40.00;;
55678;SDS011;41573;51.446;-2.018;2022-11-18T00:26:11;153.23;;;142.93;;
55678;SDS011;41573;51.446;-2.018;2022-11-18T00:28:38;42.25;;;40.03;;
55678;SDS011;41573;51.446;-2.018;2022-11-18T00:31:10;188.27;;;161.63;;
55678;SDS011;41573;51.446;-2.018;2022-11-18T00:33:37;134.45;;;124.70;;
55678;SDS011;41573;51.446;-2.018;2022-11-18T00:36:03;68.10;;;64.10;;
55678;SDS011;41573;51.446;-2.018;2022-11-18T00:38:30;52.40;;;49.63;;
55678;SDS011;41573;51.446;-2.018;2022-11-18T00:40:59;102.57;;;95.63;;
55678;SDS011;41573;51.446;-2.018;2022-11-18T00:43:35;23.20;;;21.65;;
55678;SDS011;41573;51.446;-2.018;2022-11-18T00:46:02;89.00;;;83.07;;
55678;SDS011;41573;51.446;-2.018;2022-11-18T00:48:28;122.15;;;112.65;;
55678;SDS011;41573;51.446;-2.018;2022-11-18T00:50:55;76.55;;;70.68;;
55678;SDS011;41573;51.446;-2.018;2022-11-18T00:53:22;42.38;;;40.00;;
55678;SDS011;41573;51.446;-2.018;2022-11-18T00:55:49;103.30;;;94.97;;
55678;SDS011;41573;51.446;-2.018;2022-11-18T00:58:14;100.70;;;93.88;;
55678;SDS011;41573;51.446;-2.018;2022-11-18T01:00:41;27.08;;;25.50;;
55678;SDS011;41573;51.446;-2.018;2022-11-18T01:03:07;77.32;;;72.65;;
55678;SDS011;41573;51.446;-2.018;2022-11-18T01:05:34;59.08;;;56.03;;
55678;SDS011;41573;51.446;-2.018;2022-11-18T01:07:59;94.43;;;89.05;;
55678;SDS011;41573;51.446;-2.018;2022-11-18T01:10:24;85.20;;;80.28;;
55678;SDS011;41573;51.446;-2.018;2022-11-18T01:12:50;201.77;;;189.63;;
55678;SDS011;41573;51.446;-2.018;2022-11-18T01:15:40;61.10;;;56.90;;
55678;SDS011;41573;51.446;-2.018;2022-11-18T01:18:08;61.70;;;57.58;;
55678;SDS011;41573;51.446;-2.018;2022-11-18T01:20:33;63.33;;;58.47;;
55678;SDS011;41573;51.446;-2.018;2022-11-18T01:22:59;73.43;;;66.75;;
55678;SDS011;41573;51.446;-2.018;2022-11-18T01:25:25;69.55;;;66.07;;
55678;SDS011;41573;51.446;-2.018;2022-11-18T01:27:50;157.00;;;146.75;;
55678;SDS011;41573;51.446;-2.018;2022-11-18T01:30:16;143.05;;;133.32;;
55678;SDS011;41573;51.446;-2.018;2022-11-18T01:32:42;129.98;;;120.50;;
55678;SDS011;41573;51.446;-2.018;2022-11-18T01:35:08;71.20;;;66.95;;
55678;SDS011;41573;51.446;-2.018;2022-11-18T01:37:34;66.68;;;62.50;;
55678;SDS011;41573;51.446;-2.018;2022-11-18T01:40:00;77.60;;;73.88;;
55678;SDS011;41573;51.446;-2.018;2022-11-18T01:42:25;74.57;;;70.93;;
55678;SDS011;41573;51.446;-2.018;2022-11-18T01:47:22;183.10;;;167.25;;
55678;SDS011;41573;51.446;-2.018;2022-11-18T01:49:51;60.60;;;57.63;;
55678;SDS011;41573;51.446;-2.018;2022-11-18T01:52:17;34.17;;;32.40;;
55678;SDS011;41573;51.446;-2.018;2022-11-18T01:54:43;139.63;;;130.60;;
55678;SDS011;41573;51.446;-2.018;2022-11-18T01:57:14;123.75;;;115.63;;
55678;SDS011;41573;51.446;-2.018;2022-11-18T01:59:46;91.93;;;84.93;;
55678;SDS011;41573;51.446;-2.018;2022-11-18T02:02:14;67.05;;;61.42;;
55678;SDS011;41573;51.446;-2.018;2022-11-18T02:04:41;100.50;;;95.00;;
55678;SDS011;41573;51.446;-2.018;2022-11-18T02:07:11;187.30;;;177.43;;
55678;SDS011;41573;51.446;-2.018;2022-11-18T02:09:37;54.95;;;52.00;;
55678;SDS011;41573;51.446;-2.018;2022-11-18T02:12:03;26.73;;;25.38;;
55678;SDS011;41573;51.446;-2.018;2022-11-18T02:14:34;48.33;;;45.67;;
55678;SDS011;41573;51.446;-2.018;2022-11-18T02:31:16;38.42;;;36.50;;
55678;SDS011;41573;51.446;-2.018;2022-11-18T02:33:50;14.32;;;13.48;;
55678;SDS011;41573;51.446;-2.018;2022-11-18T02:39:19;18.15;;;16.85;;
55678;SDS011;41573;51.446;-2.018;2022-11-18T02:41:51;47.40;;;42.97;;
55678;SDS011;41573;51.446;-2.018;2022-11-18T02:46:48;4.72;;;3.60;;
55678;SDS011;41573;51.446;-2.018;2022-11-18T02:49:31;12.52;;;11.45;;
55678;SDS011;41573;51.446;-2.018;2022-11-18T02:52:01;13.70;;;12.88;;
55678;SDS011;41573;51.446;-2.018;2022-11-18T02:54:29;21.02;;;19.50;;
55678;SDS011;41573;51.446;-2.018;2022-11-18T02:56:58;90.93;;;82.20;;
55678;SDS011;41573;51.446;-2.018;2022-11-18T02:59:26;45.05;;;41.83;;
55678;SDS011;41573;51.446;-2.018;2022-11-18T03:01:52;31.30;;;29.77;;
55678;SDS011;41573;51.446;-2.018;2022-11-18T03:04:18;18.88;;;17.92;;
55678;SDS011;41573;51.446;-2.018;2022-11-18T03:09:38;41.53;;;32.83;;
55678;SDS011;41573;51.446;-2.018;2022-11-18T03:26:14;8.52;;;5.47;;
55678;SDS011;41573;51.446;-2.018;2022-11-18T03:28:58;8.80;;;7.85;;
55678;SDS011;41573;51.446;-2.018;2022-11-18T03:31:39;42.95;;;40.45;;
55678;SDS011;41573;51.446;-2.018;2022-11-18T03:34:09;10.23;;;9.60;;
55678;SDS011;41573;51.446;-2.018;2022-11-18T03:36:42;6.40;;;5.85;;
55678;SDS011;41573;51.446;-2.018;2022-11-18T03:39:11;54.47;;;51.13;;
55678;SDS011;41573;51.446;-2.018;2022-11-18T03:41:45;32.40;;;30.50;;
55678;SDS011;41573;51.446;-2.018;2022-11-18T03:44:18;55.50;;;49.90;;
55678;SDS011;41573;51.446;-2.018;2022-11-18T03:46:52;36.70;;;34.20;;
55678;SDS011;41573;51.446;-2.018;2022-11-18T03:49:25;20.00;;;18.85;;
55678;SDS011;41573;51.446;-2.018;2022-11-18T03:52:14;292.20;;;264.10;;
55678;SDS011;41573;51.446;-2.018;2022-11-18T03:54:44;28.27;;;26.80;;
55678;SDS011;41573;51.446;-2.018;2022-11-18T03:57:17;56.53;;;53.47;;
55678;SDS011;41573;51.446;-2.018;2022-11-18T03:59:48;111.75;;;103.55;;
55678;SDS011;41573;51.446;-2.018;2022-11-18T04:02:19;50.88;;;47.20;;
55678;SDS011;41573;51.446;-2.018;2022-11-18T04:04:48;22.13;;;21.00;;
55678;SDS011;41573;51.446;-2.018;2022-11-18T04:09:53;28.42;;;26.38;;
55678;SDS011;41573;51.446;-2.018;2022-11-18T04:12:21;33.85;;;31.48;;
55678;SDS011;41573;51.446;-2.018;2022-11-18T04:14:49;24.42;;;22.02;;
55678;SDS011;41573;51.446;-2.018;2022-11-18T04:17:19;104.25;;;98.63;;
55678;SDS011;41573;51.446;-2.018;2022-11-18T04:19:47;27.90;;;25.67;;
55678;SDS011;41573;51.446;-2.018;2022-11-18T04:22:13;74.13;;;69.30;;
55678;SDS011;41573;51.446;-2.018;2022-11-18T04:24:38;29.65;;;27.92;;
55678;SDS011;41573;51.446;-2.018;2022-11-18T04:27:04;21.92;;;20.40;;
55678;SDS011;41573;51.446;-2.018;2022-11-18T04:29:30;87.93;;;82.30;;
55678;SDS011;41573;51.446;-2.018;2022-11-18T04:31:57;15.25;;;14.40;;
55678;SDS011;41573;51.446;-2.018;2022-11-18T04:34:24;30.27;;;28.40;;
55678;SDS011;41573;51.446;-2.018;2022-11-18T04:36:49;23.55;;;22.40;;
55678;SDS011;41573;51.446;-2.018;2022-11-18T04:39:15;57.97;;;54.83;;
55678;SDS011;41573;51.446;-2.018;2022-11-18T04:41:42;39.15;;;36.97;;
55678;SDS011;41573;51.446;-2.018;2022-11-18T04:44:29;11.18;;;9.88;;
55678;SDS011;41573;51.446;-2.018;2022-11-18T04:46:56;15.50;;;14.55;;
55678;SDS011;41573;51.446;-2.018;2022-11-18T04:49:24;22.25;;;21.02;;
55678;SDS011;41573;51.446;-2.018;2022-11-18T04:51:50;12.38;;;11.68;;
55678;SDS011;41573;51.446;-2.018;2022-11-18T04:54:16;19.27;;;18.17;;
55678;SDS011;41573;51.446;-2.018;2022-11-18T04:56:43;16.33;;;15.18;;
55678;SDS011;41573;51.446;-2.018;2022-11-18T04:59:08;19.13;;;18.10;;
55678;SDS011;41573;51.446;-2.018;2022-11-18T05:01:34;35.80;;;33.58;;
55678;SDS011;41573;51.446;-2.018;2022-11-18T05:04:00;17.73;;;16.35;;
55678;SDS011;41573;51.446;-2.018;2022-11-18T05:06:26;37.42;;;35.45;;
55678;SDS011;41573;51.446;-2.018;2022-11-18T05:08:52;39.20;;;37.25;;
55678;SDS011;41573;51.446;-2.018;2022-11-18T05:11:18;46.75;;;44.20;;
55678;SDS011;41573;51.446;-2.018;2022-11-18T05:14:02;25.60;;;24.25;;
55678;SDS011;41573;51.446;-2.018;2022-11-18T05:16:28;48.00;;;45.63;;
55678;SDS011;41573;51.446;-2.018;2022-11-18T05:18:53;59.78;;;56.17;;
55678;SDS011;41573;51.446;-2.018;2022-11-18T05:21:19;50.88;;;48.00;;
55678;SDS011;41573;51.446;-2.018;2022-11-18T05:23:44;60.05;;;57.10;;
55678;SDS011;41573;51.446;-2.018;2022-11-18T05:26:10;142.23;;;132.05;;
55678;SDS011;41573;51.446;-2.018;2022-11-18T05:28:35;40.17;;;38.03;;
55678;SDS011;41573;51.446;-2.018;2022-11-18T05:31:08;100.75;;;95.10;;
55678;SDS011;41573;51.446;-2.018;2022-11-18T05:33:37;125.63;;;114.20;;
55678;SDS011;41573;51.446;-2.018;2022-11-18T05:36:04;99.53;;;94.32;;
55678;SDS011;41573;51.446;-2.018;2022-11-18T05:38:32;39.80;;;37.40;;
55678;SDS011;41573;51.446;-2.018;2022-11-18T05:40:58;254.88;;;233.18;;
55678;SDS011;41573;51.446;-2.018;2022-11-18T05:43:23;57.72;;;54.83;;
55678;SDS011;41573;51.446;-2.018;2022-11-18T05:45:49;99.93;;;94.10;;
55678;SDS011;41573;51.446;-2.018;2022-11-18T05:48:16;53.65;;;50.67;;
55678;SDS011;41573;51.446;-2.018;2022-11-18T05:50:44;47.67;;;44.95;;
55678;SDS011;41573;51.446;-2.018;2022-11-18T05:53:11;23.50;;;22.17;;
55678;SDS011;41573;51.446;-2.018;2022-11-18T05:55:41;93.78;;;88.07;;
55678;SDS011;41573;51.446;-2.018;2022-11-18T05:58:13;36.97;;;34.63;;
55678;SDS011;41573;51.446;-2.018;2022-11-18T06:00:38;97.00;;;91.30;;
55678;SDS011;41573;51.446;-2.018;2022-11-18T06:03:06;57.17;;;54.00;;
55678;SDS011;41573;51.446;-2.018;2022-11-18T06:05:37;48.45;;;45.35;;
55678;SDS011;41573;51.446;-2.018;2022-11-18T06:08:02;49.10;;;46.10;;
55678;SDS011;41573;51.446;-2.018;2022-11-18T06:10:30;122.45;;;114.25;;
55678;SDS011;41573;51.446;-2.018;2022-11-18T06:13:00;68.55;;;64.38;;
55678;SDS011;41573;51.446;-2.018;2022-11-18T06:18:25;17.35;;;16.10;;
55678;SDS011;41573;51.446;-2.018;2022-11-18T06:20:54;36.42;;;33.90;;
55678;SDS011;41573;51.446;-2.018;2022-11-18T06:23:23;52.20;;;49.17;;
55678;SDS011;41573;51.446;-2.018;2022-11-18T06:25:50;146.15;;;136.65;;
55678;SDS011;41573;51.446;-2.018;2022-11-18T06:28:16;74.45;;;70.13;;
55678;SDS011;41573;51.446;-2.018;2022-11-18T06:30:43;98.50;;;92.22;;
55678;SDS011;41573;51.446;-2.018;2022-11-18T06:33:08;153.40;;;145.02;;
55678;SDS011;41573;51.446;-2.018;2022-11-18T06:35:34;76.07;;;71.75;;
55678;SDS011;41573;51.446;-2.018;2022-11-18T06:37:59;263.85;;;242.05;;
55678;SDS011;41573;51.446;-2.018;2022-11-18T06:40:25;59.25;;;55.83;;
55678;SDS011;41573;51.446;-2.018;2022-11-18T06:42:50;178.95;;;166.63;;
55678;SDS011;41573;51.446;-2.018;2022-11-18T06:45:34;54.13;;;51.15;;
55678;SDS011;41573;51.446;-2.018;2022-11-18T06:48:00;110.97;;;104.85;;
55678;SDS011;41573;51.446;-2.018;2022-11-18T06:50:26;191.15;;;178.82;;
55678;SDS011;41573;51.446;-2.018;2022-11-18T06:52:52;96.63;;;90.32;;
55678;SDS011;41573;51.446;-2.018;2022-11-18T06:55:17;215.20;;;197.98;;
55678;SDS011;41573;51.446;-2.018;2022-11-18T06:57:43;59.70;;;55.88;;
55678;SDS011;41573;51.446;-2.018;2022-11-18T07:00:08;157.40;;;146.93;;
55678;SDS011;41573;51.446;-2.018;2022-11-18T07:02:34;80.30;;;75.05;;
55678;SDS011;41573;51.446;-2.018;2022-11-18T07:05:00;177.18;;;162.40;;
55678;SDS011;41573;51.446;-2.018;2022-11-18T07:07:26;156.30;;;144.00;;
55678;SDS011;41573;51.446;-2.018;2022-11-18T07:09:51;109.07;;;102.75;;
55678;SDS011;41573;51.446;-2.018;2022-11-18T07:12:17;117.70;;;110.57;;
55678;SDS011;41573;51.446;-2.018;2022-11-18T07:14:42;168.25;;;154.55;;
55678;SDS011;41573;51.446;-2.018;2022-11-18T07:17:08;148.57;;;139.60;;
55678;SDS011;41573;51.446;-2.018;2022-11-18T07:19:33;114.00;;;107.75;;
55678;SDS011;41573;51.446;-2.018;2022-11-18T07:21:58;180.88;;;170.32;;
55678;SDS011;41573;51.446;-2.018;2022-11-18T07:24:24;127.03;;;119.70;;
55678;SDS011;41573;51.446;-2.018;2022-11-18T07:26:51;170.82;;;157.45;;
55678;SDS011;41573;51.446;-2.018;2022-11-18T07:29:17;238.82;;;222.05;;
55678;SDS011;41573;51.446;-2.018;2022-11-18T07:31:43;311.38;;;290.27;;
55678;SDS011;41573;51.446;-2.018;2022-11-18T07:34:08;135.85;;;127.88;;
55678;SDS011;41573;51.446;-2.018;2022-11-18T07:36:33;240.57;;;223.55;;
55678;SDS011;41573;51.446;-2.018;2022-11-18T07:38:59;143.00;;;133.93;;
55678;SDS011;41573;51.446;-2.018;2022-11-18T07:41:27;211.18;;;197.70;;
55678;SDS011;41573;51.446;-2.018;2022-11-18T07:43:54;129.70;;;121.65;;
55678;SDS011;41573;51.446;-2.018;2022-11-18T07:46:21;197.68;;;184.05;;
55678;SDS011;41573;51.446;-2.018;2022-11-18T07:48:50;246.60;;;229.98;;
55678;SDS011;41573;51.446;-2.018;2022-11-18T07:51:17;109.10;;;102.95;;
55678;SDS011;41573;51.446;-2.018;2022-11-18T07:53:45;141.23;;;131.75;;
55678;SDS011;41573;51.446;-2.018;2022-11-18T07:56:11;232.95;;;199.63;;
55678;SDS011;41573;51.446;-2.018;2022-11-18T07:58:37;148.07;;;135.30;;
55678;SDS011;41573;51.446;-2.018;2022-11-18T08:01:13;122.75;;;116.43;;
55678;SDS011;41573;51.446;-2.018;2022-11-18T08:03:40;163.88;;;154.82;;
55678;SDS011;41573;51.446;-2.018;2022-11-18T08:06:07;159.07;;;150.52;;
55678;SDS011;41573;51.446;-2.018;2022-11-18T08:08:34;121.13;;;113.75;;
55678;SDS011;41573;51.446;-2.018;2022-11-18T08:11:00;97.10;;;92.05;;
55678;SDS011;41573;51.446;-2.018;2022-11-18T08:13:28;307.58;;;288.67;;
55678;SDS011;41573;51.446;-2.018;2022-11-18T08:15:54;155.20;;;146.38;;
55678;SDS011;41573;51.446;-2.018;2022-11-18T08:18:20;227.75;;;214.43;;
55678;SDS011;41573;51.446;-2.018;2022-11-18T08:20:46;242.32;;;227.73;;
55678;SDS011;41573;51.446;-2.018;2022-11-18T08:23:12;211.25;;;196.05;;
55678;SDS011;41573;51.446;-2.018;2022-11-18T08:25:38;239.98;;;226.38;;
55678;SDS011;41573;51.446;-2.018;2022-11-18T08:28:05;140.50;;;133.45;;
55678;SDS011;41573;51.446;-2.018;2022-11-18T08:30:31;336.08;;;315.60;;
55678;SDS011;41573;51.446;-2.018;2022-11-18T08:32:57;368.23;;;344.45;;
55678;SDS011;41573;51.446;-2.018;2022-11-18T08:35:24;423.50;;;393.10;;
55678;SDS011;41573;51.446;-2.018;2022-11-18T08:37:50;281.02;;;263.17;;
55678;SDS011;41573;51.446;-2.018;2022-11-18T08:40:15;62.05;;;59.00;;
55678;SDS011;41573;51.446;-2.018;2022-11-18T08:42:41;227.68;;;213.15;;
55678;SDS011;41573;51.446;-2.018;2022-11-18T08:45:06;274.92;;;257.17;;
55678;SDS011;41573;51.446;-2.018;2022-11-18T08:47:32;197.18;;;186.75;;
55678;SDS011;41573;51.446;-2.018;2022-11-18T08:49:58;274.80;;;257.20;;
55678;SDS011;41573;51.446;-2.018;2022-11-18T08:52:24;85.05;;;80.65;;
55678;SDS011;41573;51.446;-2.018;2022-11-18T08:54:49;278.63;;;257.98;;
55678;SDS011;41573;51.446;-2.018;2022-11-18T08:57:15;186.77;;;176.60;;
55678;SDS011;41573;51.446;-2.018;2022-11-18T08:59:40;235.32;;;219.05;;
55678;SDS011;41573;51.446;-2.018;2022-11-18T09:02:11;237.70;;;219.77;;
55678;SDS011;41573;51.446;-2.018;2022-11-18T09:04:38;314.00;;;293.92;;
55678;SDS011;41573;51.446;-2.018;2022-11-18T09:07:03;179.18;;;165.55;;
55678;SDS011;41573;51.446;-2.018;2022-11-18T09:09:29;329.58;;;304.00;;
55678;SDS011;41573;51.446;-2.018;2022-11-18T09:11:54;376.33;;;351.23;;
55678;SDS011;41573;51.446;-2.018;2022-11-18T09:14:19;296.02;;;276.05;;
55678;SDS011;41573;51.446;-2.018;2022-11-18T09:16:45;712.67;;;598.42;;
55678;SDS011;41573;51.446;-2.018;2022-11-18T09:19:10;347.45;;;323.17;;
55678;SDS011;41573;51.446;-2.018;2022-11-18T09:21:36;542.70;;;489.55;;
55678;SDS011;41573;51.446;-2.018;2022-11-18T09:24:04;384.40;;;345.48;;
55678;SDS011;41573;51.446;-2.018;2022-11-18T09:26:30;460.48;;;421.20;;
55678;SDS011;41573;51.446;-2.018;2022-11-18T09:28:55;313.55;;;293.98;;
55678;SDS011;41573;51.446;-2.018;2022-11-18T09:31:21;412.35;;;378.90;;
55678;SDS011;41573;51.446;-2.018;2022-11-18T09:33:46;384.08;;;348.45;;
55678;SDS011;41573;51.446;-2.018;2022-11-18T09:36:13;476.83;;;438.02;;
55678;SDS011;41573;51.446;-2.018;2022-11-18T09:38:39;396.55;;;366.30;;
55678;SDS011;41573;51.446;-2.018;2022-11-18T09:41:10;462.38;;;423.73;;
55678;SDS011;41573;51.446;-2.018;2022-11-18T09:44:04;264.75;;;244.10;;
55678;SDS011;41573;51.446;-2.018;2022-11-18T09:49:10;499.63;;;460.48;;
55678;SDS011;41573;51.446;-2.018;2022-11-18T09:51:44;627.03;;;579.30;;
55678;SDS011;41573;51.446;-2.018;2022-11-18T09:54:23;289.75;;;269.40;;
55678;SDS011;41573;51.446;-2.018;2022-11-18T09:56:51;417.38;;;382.38;;
55678;SDS011;41573;51.446;-2.018;2022-11-18T09:59:18;742.55;;;679.60;;
55678;SDS011;41573;51.446;-2.018;2022-11-18T10:01:47;555.42;;;514.65;;
55678;SDS011;41573;51.446;-2.018;2022-11-18T10:04:16;696.38;;;635.97;;
55678;SDS011;41573;51.446;-2.018;2022-11-18T10:06:43;732.22;;;663.88;;
55678;SDS011;41573;51.446;-2.018;2022-11-18T10:11:44;731.75;;;670.67;;
55678;SDS011;41573;51.446;-2.018;2022-11-18T10:20:11;673.35;;;616.60;;
55678;SDS011;41573;51.446;-2.018;2022-11-18T10:23:08;713.60;;;648.05;;
55678;SDS011;41573;51.446;-2.018;2022-11-18T10:25:48;520.78;;;477.20;;
55678;SDS011;41573;51.446;-2.018;2022-11-18T10:28:20;673.75;;;602.67;;
55678;SDS011;41573;51.446;-2.018;2022-11-18T10:30:48;581.95;;;535.35;;
55678;SDS011;41573;51.446;-2.018;2022-11-18T10:33:31;534.17;;;490.65;;
55678;SDS011;41573;51.446;-2.018;2022-11-18T10:36:07;587.03;;;543.65;;
55678;SDS011;41573;51.446;-2.018;2022-11-18T10:38:35;500.98;;;455.48;;
55678;SDS011;41573;51.446;-2.018;2022-11-18T10:41:01;731.28;;;663.05;;
55678;SDS011;41573;51.446;-2.018;2022-11-18T10:51:32;213.63;;;200.88;;
55678;SDS011;41573;51.446;-2.018;2022-11-18T10:59:23;562.97;;;519.15;;
55678;SDS011;41573;51.446;-2.018;2022-11-18T11:02:02;531.95;;;492.92;;
55678;SDS011;41573;51.446;-2.018;2022-11-18T11:04:57;396.63;;;373.08;;
55678;SDS011;41573;51.446;-2.018;2022-11-18T11:10:00;702.22;;;633.58;;
55678;SDS011;41573;51.446;-2.018;2022-11-18T11:12:30;399.52;;;353.27;;
55678;SDS011;41573;51.446;-2.018;2022-11-18T11:15:02;484.98;;;442.83;;
55678;SDS011;41573;51.446;-2.018;2022-11-18T11:17:32;730.80;;;669.88;;
55678;SDS011;41573;51.446;-2.018;2022-11-18T11:20:06;694.80;;;635.78;;
55678;SDS011;41573;51.446;-2.018;2022-11-18T11:22:34;659.13;;;605.40;;
55678;SDS011;41573;51.446;-2.018;2022-11-18T11:25:00;490.15;;;452.15;;
55678;SDS011;41573;51.446;-2.018;2022-11-18T11:27:46;717.28;;;653.90;;
55678;SDS011;41573;51.446;-2.018;2022-11-18T11:30:21;434.50;;;391.33;;
55678;SDS011;41573;51.446;-2.018;2022-11-18T11:41:23;306.15;;;281.92;;
55678;SDS011;41573;51.446;-2.018;2022-11-18T11:46:47;572.90;;;531.70;;
55678;SDS011;41573;51.446;-2.018;2022-11-18T11:49:54;372.48;;;346.73;;
55678;SDS011;41573;51.446;-2.018;2022-11-18T11:52:29;502.92;;;470.70;;
55678;SDS011;41573;51.446;-2.018;2022-11-18T11:55:50;568.60;;;524.33;;
55678;SDS011;41573;51.446;-2.018;2022-11-18T11:58:49;692.80;;;641.00;;
55678;SDS011;41573;51.446;-2.018;2022-11-18T12:03:44;335.23;;;314.48;;
55678;SDS011;41573;51.446;-2.018;2022-11-18T12:06:12;439.42;;;403.88;;
55678;SDS011;41573;51.446;-2.018;2022-11-18T12:08:40;418.92;;;387.50;;
55678;SDS011;41573;51.446;-2.018;2022-11-18T12:11:19;339.05;;;314.20;;
55678;SDS011;41573;51.446;-2.018;2022-11-18T12:13:57;649.97;;;555.63;;
55678;SDS011;41573;51.446;-2.018;2022-11-18T12:19:10;371.77;;;334.60;;
55678;SDS011;41573;51.446;-2.018;2022-11-18T12:26:42;395.50;;;362.23;;
55678;SDS011;41573;51.446;-2.018;2022-11-18T12:31:43;692.70;;;516.13;;
55678;SDS011;41573;51.446;-2.018;2022-11-18T12:34:26;385.25;;;350.02;;
55678;SDS011;41573;51.446;-2.018;2022-11-18T12:36:55;749.88;;;659.55;;
55678;SDS011;41573;51.446;-2.018;2022-11-18T12:44:36;640.45;;;586.28;;
55678;SDS011;41573;51.446;-2.018;2022-11-18T12:47:04;831.90;;;745.72;;
55678;SDS011;41573;51.446;-2.018;2022-11-18T12:52:02;725.25;;;664.75;;
55678;SDS011;41573;51.446;-2.018;2022-11-18T12:57:19;1074.32;;;844.15;;
55678;SDS011;41573;51.446;-2.018;2022-11-18T12:59:47;434.30;;;395.33;;
55678;SDS011;41573;51.446;-2.018;2022-11-18T13:02:23;390.60;;;362.48;;
55678;SDS011;41573;51.446;-2.018;2022-11-18T13:05:06;657.95;;;598.25;;
55678;SDS011;41573;51.446;-2.018;2022-11-18T13:10:31;667.42;;;610.55;;
55678;SDS011;41573;51.446;-2.018;2022-11-18T13:12:59;523.72;;;487.27;;
55678;SDS011;41573;51.446;-2.018;2022-11-18T13:15:25;662.42;;;593.65;;
55678;SDS011;41573;51.446;-2.018;2022-11-18T13:18:12;635.47;;;570.50;;
55678;SDS011;41573;51.446;-2.018;2022-11-18T13:20:41;1067.72;;;778.47;;
55678;SDS011;41573;51.446;-2.018;2022-11-18T13:25:51;506.35;;;448.17;;
55678;SDS011;41573;51.446;-2.018;2022-11-18T13:28:20;317.02;;;284.63;;
55678;SDS011;41573;51.446;-2.018;2022-11-18T13:33:40;526.20;;;490.75;;
55678;SDS011;41573;51.446;-2.018;2022-11-18T13:36:14;688.80;;;609.58;;
55678;SDS011;41573;51.446;-2.018;2022-11-18T13:38:53;592.38;;;548.00;;
55678;SDS011;41573;51.446;-2.018;2022-11-18T13:41:26;431.42;;;400.95;;
55678;SDS011;41573;51.446;-2.018;2022-11-18T13:46:45;667.53;;;605.15;;
55678;SDS011;41573;51.446;-2.018;2022-11-18T13:49:15;674.53;;;617.47;;
55678;SDS011;41573;51.446;-2.018;2022-11-18T13:51:46;813.17;;;728.65;;
55678;SDS011;41573;51.446;-2.018;2022-11-18T13:54:13;650.78;;;601.22;;
55678;SDS011;41573;51.446;-2.018;2022-11-18T13:56:45;704.53;;;645.45;;
55678;SDS011;41573;51.446;-2.018;2022-11-18T13:59:14;477.67;;;445.38;;
55678;SDS011;41573;51.446;-2.018;2022-11-18T14:01:44;690.30;;;630.97;;
55678;SDS011;41573;51.446;-2.018;2022-11-18T14:06:43;506.92;;;472.13;;
55678;SDS011;41573;51.446;-2.018;2022-11-18T14:14:45;563.92;;;520.92;;
55678;SDS011;41573;51.446;-2.018;2022-11-18T14:17:15;766.67;;;692.72;;
55678;SDS011;41573;51.446;-2.018;2022-11-18T14:19:41;321.60;;;297.02;;
55678;SDS011;41573;51.446;-2.018;2022-11-18T14:22:14;717.20;;;660.85;;
55678;SDS011;41573;51.446;-2.018;2022-11-18T14:24:57;497.63;;;462.38;;
55678;SDS011;41573;51.446;-2.018;2022-11-18T14:27:35;337.30;;;316.23;;
55678;SDS011;41573;51.446;-2.018;2022-11-18T14:33:10;552.92;;;508.83;;
55678;SDS011;41573;51.446;-2.018;2022-11-18T14:35:37;306.75;;;288.85;;
55678;SDS011;41573;51.446;-2.018;2022-11-18T14:38:13;536.80;;;490.10;;
55678;SDS011;41573;51.446;-2.018;2022-11-18T14:40:40;499.33;;;464.67;;
55678;SDS011;41573;51.446;-2.018;2022-11-18T14:43:06;305.10;;;283.83;;
55678;SDS011;41573;51.446;-2.018;2022-11-18T14:45:34;231.63;;;215.60;;
55678;SDS011;41573;51.446;-2.018;2022-11-18T14:47:59;208.00;;;195.05;;
55678;SDS011;41573;51.446;-2.018;2022-11-18T14:50:25;476.15;;;444.05;;
55678;SDS011;41573;51.446;-2.018;2022-11-18T14:52:51;316.67;;;297.40;;
55678;SDS011;41573;51.446;-2.018;2022-11-18T14:55:16;214.80;;;203.65;;
55678;SDS011;41573;51.446;-2.018;2022-11-18T14:57:41;99.63;;;93.85;;
55678;SDS011;41573;51.446;-2.018;2022-11-18T15:00:09;303.55;;;286.63;;
55678;SDS011;41573;51.446;-2.018;2022-11-18T15:02:38;227.52;;;214.88;;
55678;SDS011;41573;51.446;-2.018;2022-11-18T15:05:03;301.08;;;283.73;;
55678;SDS011;41573;51.446;-2.018;2022-11-18T15:07:29;184.55;;;174.25;;
55678;SDS011;41573;51.446;-2.018;2022-11-18T15:09:54;275.02;;;256.95;;
55678;SDS011;41573;51.446;-2.018;2022-11-18T15:12:20;249.00;;;232.95;;
55678;SDS011;41573;51.446;-2.018;2022-11-18T15:14:45;573.42;;;535.40;;
55678;SDS011;41573;51.446;-2.018;2022-11-18T15:17:11;220.70;;;203.25;;
55678;SDS011;41573;51.446;-2.018;2022-11-18T15:19:37;486.92;;;445.42;;
55678;SDS011;41573;51.446;-2.018;2022-11-18T15:22:04;388.15;;;361.33;;
55678;SDS011;41573;51.446;-2.018;2022-11-18T15:24:30;37.28;;;34.97;;
55678;SDS011;41573;51.446;-2.018;2022-11-18T15:26:55;252.48;;;236.93;;
55678;SDS011;41573;51.446;-2.018;2022-11-18T15:29:21;63.03;;;59.38;;
55678;SDS011;41573;51.446;-2.018;2022-11-18T15:31:48;181.77;;;170.50;;
55678;SDS011;41573;51.446;-2.018;2022-11-18T15:34:15;59.10;;;55.72;;
55678;SDS011;41573;51.446;-2.018;2022-11-18T15:36:42;24.63;;;22.63;;
55678;SDS011;41573;51.446;-2.018;2022-11-18T15:39:08;95.47;;;89.80;;
55678;SDS011;41573;51.446;-2.018;2022-11-18T15:41:34;44.45;;;41.97;;
55678;SDS011;41573;51.446;-2.018;2022-11-18T15:44:02;55.67;;;52.35;;
55678;SDS011;41573;51.446;-2.018;2022-11-18T15:46:27;87.68;;;82.75;;
55678;SDS011;41573;51.446;-2.018;2022-11-18T15:48:54;48.78;;;46.13;;
55678;SDS011;41573;51.446;-2.018;2022-11-18T15:51:21;29.55;;;27.73;;
55678;SDS011;41573;51.446;-2.018;2022-11-18T15:53:47;101.38;;;94.68;;
55678;SDS011;41573;51.446;-2.018;2022-11-18T16:01:24;46.80;;;44.25;;
55678;SDS011;41573;51.446;-2.018;2022-11-18T16:03:51;104.88;;;98.68;;
55678;SDS011;41573;51.446;-2.018;2022-11-18T16:06:17;94.32;;;88.68;;
55678;SDS011;41573;51.446;-2.018;2022-11-18T16:08:42;162.85;;;154.07;;
55678;SDS011;41573;51.446;-2.018;2022-11-18T16:11:10;169.15;;;160.70;;
55678;SDS011;41573;51.446;-2.018;2022-11-18T16:13:59;269.83;;;254.13;;
55678;SDS011;41573;51.446;-2.018;2022-11-18T16:16:28;404.55;;;380.55;;
55678;SDS011;41573;51.446;-2.018;2022-11-18T16:18:58;290.00;;;273.45;;